Terminal Aerodrome Forecast
Issued by NWS

Home | Current Version | Previous Version | Text Only | Print | Product List | Glossary On
Versions: 1 2 3 4 5 6 7 8 9 10 11 12 13 14 15 16 17 18 19 20 21 22 23 24 25 26
958
FTUS43 KILX 171134
TAFDEC
TAF
KDEC 171134Z 1712/1812 28009KT 6SM BR SCT003
      TEMPO 1712/1714 3SM BR OVC003
     FM171500 27009KT P6SM FEW005
     FM171900 24011KT P6SM SCT120 SCT250
     FM180000 22010KT P6SM SCT250=

USA.gov is the U.S. government's official web portal to all federal, state and local government web resources and services.